Time;durP1;ratioP1;P1;durP2;ratioP2;P2;SDS_P1;SDS_P2;PMS_P1;PMS_P2;Temp;Humidity;BMP_temperature;BMP_pressure;BME280_temperature;BME280_humidity;BME280_pressure;Samples;Min_cycle;Max_cycle;Signal;HPM_P1;HPM_P2
2021/12/20 00:00:50;;;;;;;26.98;12.50;;;;;;;-0.05;100.00;96368.47;4986891;28;20043;-44
2021/12/20 00:03:17;;;;;;;23.83;11.25;;;;;;;0.19;100.00;96368.91;4989987;28;20062;-45
2021/12/20 00:05:44;;;;;;;24.20;11.40;;;;;;;0.36;100.00;96366.09;4986234;28;20562;-47
2021/12/20 00:08:11;;;;;;;26.45;11.93;;;;;;;0.13;100.00;96353.97;4989633;28;20407;-44
2021/12/20 00:10:38;;;;;;;27.38;11.32;;;;;;;0.23;100.00;96353.25;4985512;28;20046;-46
2021/12/20 00:13:05;;;;;;;23.08;11.50;;;;;;;0.07;100.00;96344.34;4983763;28;20042;-45
2021/12/20 00:15:32;;;;;;;23.67;10.95;;;;;;;-0.01;100.00;96350.94;4988418;28;20126;-49
2021/12/20 00:17:59;;;;;;;25.58;12.85;;;;;;;0.23;100.00;96358.56;4992982;28;20046;-48
2021/12/20 00:20:26;;;;;;;22.45;11.07;;;;;;;-0.13;100.00;96350.31;4993505;28;20049;-46
2021/12/20 00:22:53;;;;;;;23.52;11.63;;;;;;;0.07;100.00;96355.00;4990345;28;20125;-45
2021/12/20 00:25:20;;;;;;;25.83;11.40;;;;;;;0.27;100.00;96349.00;4988812;28;20053;-44
2021/12/20 00:27:47;;;;;;;26.85;12.50;;;;;;;0.13;100.00;96338.00;4987240;28;20054;-44
2021/12/20 00:30:14;;;;;;;25.50;12.48;;;;;;;0.19;100.00;96352.94;4991024;28;20507;-45
2021/12/20 00:32:41;;;;;;;27.08;13.32;;;;;;;0.30;100.00;96345.03;4993174;28;20042;-44
2021/12/20 00:35:08;;;;;;;25.70;12.93;;;;;;;0.22;100.00;96352.41;4992401;28;20038;-46
2021/12/20 00:40:21;;;;;;;28.45;13.48;;;;;;;0.14;100.00;96328.97;4993573;28;20040;-44
2021/12/20 00:42:57;;;;;;;27.30;11.88;;;;;;;0.01;100.00;96324.09;4987374;28;20275;-44
2021/12/20 00:45:30;;;;;;;25.48;12.82;;;;;;;0.18;100.00;96327.38;4990461;28;20420;-46
2021/12/20 00:47:57;;;;;;;26.27;12.43;;;;;;;0.23;100.00;96331.97;4987388;28;20129;-43
2021/12/20 00:50:26;;;;;;;29.63;12.05;;;;;;;0.10;100.00;96335.88;4991424;28;20042;-45
2021/12/20 00:52:53;;;;;;;25.40;12.63;;;;;;;0.16;100.00;96342.81;4991049;28;20556;-44
2021/12/20 00:55:22;;;;;;;24.83;12.73;;;;;;;0.14;100.00;96334.28;4984728;28;20089;-43
2021/12/20 00:57:52;;;;;;;27.73;13.32;;;;;;;0.24;100.00;96344.19;4987350;28;20038;-45
2021/12/20 01:00:28;;;;;;;24.17;11.48;;;;;;;-0.03;100.00;96346.94;4992599;28;20046;-45
2021/12/20 01:02:56;;;;;;;25.50;12.05;;;;;;;0.10;100.00;96338.53;4993041;28;20085;-47
2021/12/20 01:05:25;;;;;;;28.08;13.15;;;;;;;0.06;100.00;96337.41;4990208;28;20104;-44
2021/12/20 01:07:56;;;;;;;22.30;10.70;;;;;;;0.37;100.00;96342.94;4991201;28;20060;-43
2021/12/20 01:10:24;;;;;;;26.42;11.65;;;;;;;0.63;99.97;96344.69;4990422;28;20136;-48
2021/12/20 01:12:53;;;;;;;24.02;11.30;;;;;;;0.51;99.98;96338.75;4991763;28;20559;-43
2021/12/20 01:15:24;;;;;;;23.35;11.18;;;;;;;0.30;100.00;96335.19;4990842;28;20049;-47
2021/12/20 01:17:52;;;;;;;23.63;11.00;;;;;;;0.25;100.00;96331.69;4990776;28;20065;-45
2021/12/20 01:20:20;;;;;;;22.10;11.20;;;;;;;0.46;100.00;96331.56;4987600;28;20046;-43
2021/12/20 01:22:49;;;;;;;26.70;11.68;;;;;;;0.31;100.00;96339.44;4988349;28;20133;-47
2021/12/20 01:25:17;;;;;;;26.27;11.77;;;;;;;0.55;100.00;96333.72;4991577;28;20048;-45
2021/12/20 01:27:44;;;;;;;29.27;12.38;;;;;;;0.46;100.00;96336.88;4990335;28;20056;-44
2021/12/20 01:30:14;;;;;;;25.20;11.40;;;;;;;0.44;100.00;96338.19;4990260;28;20065;-43
2021/12/20 01:32:42;;;;;;;27.08;11.98;;;;;;;0.34;100.00;96335.47;4990494;28;20043;-43
2021/12/20 01:35:10;;;;;;;26.73;12.82;;;;;;;0.31;100.00;96330.66;4990213;28;20042;-44
2021/12/20 01:37:37;;;;;;;26.05;12.30;;;;;;;0.50;100.00;96326.53;4982589;28;20042;-44
2021/12/20 01:40:06;;;;;;;25.05;11.95;;;;;;;0.66;99.83;96325.53;4991813;28;20052;-44
2021/12/20 01:42:35;;;;;;;27.33;12.48;;;;;;;0.65;99.08;96334.59;4989874;28;20043;-44
2021/12/20 01:45:04;;;;;;;27.90;12.82;;;;;;;0.46;100.00;96328.91;4987065;28;20452;-46
2021/12/20 01:47:35;;;;;;;23.98;12.52;;;;;;;0.31;100.00;96341.31;4987070;28;20047;-44
2021/12/20 01:50:41;;;;;;;26.20;11.48;;;;;;;0.37;100.00;96335.75;4992377;28;20389;-46
2021/12/20 01:52:52;;;;;;;24.90;11.73;;;;;;;0.57;100.00;96343.06;4989703;28;20042;-46
2021/12/20 01:55:22;;;;;;;23.02;11.30;;;;;;;0.30;100.00;96334.41;4989470;28;20046;-43
2021/12/20 01:57:49;;;;;;;26.90;12.48;;;;;;;0.47;100.00;96330.50;4986015;28;20051;-47
2021/12/20 02:00:20;;;;;;;26.48;13.25;;;;;;;0.45;100.00;96331.81;4988593;28;20053;-44
2021/12/20 02:02:49;;;;;;;24.30;11.60;;;;;;;0.53;100.00;96327.88;4988209;28;20049;-44
2021/12/20 02:05:22;;;;;;;26.23;12.13;;;;;;;0.64;100.00;96335.63;4986727;28;20148;-47
2021/12/20 02:07:52;;;;;;;26.33;11.35;;;;;;;0.53;100.00;96334.00;4986024;28;20047;-47
2021/12/20 02:10:19;;;;;;;21.23;10.30;;;;;;;0.19;100.00;96326.31;4989546;28;20081;-43
2021/12/20 02:12:46;;;;;;;24.23;11.73;;;;;;;0.30;100.00;96321.09;4992131;28;20042;-43
2021/12/20 02:15:14;;;;;;;24.02;11.23;;;;;;;0.66;99.93;96322.06;4991502;28;20051;-47
2021/12/20 02:17:41;;;;;;;25.10;12.05;;;;;;;0.50;100.00;96334.50;4986135;28;20046;-45
2021/12/20 02:20:09;;;;;;;23.92;11.38;;;;;;;0.49;100.00;96329.44;4992825;28;20101;-43
2021/12/20 02:22:38;;;;;;;22.98;10.10;;;;;;;0.28;100.00;96324.00;4989317;28;20068;-45
2021/12/20 02:25:06;;;;;;;25.25;12.20;;;;;;;0.51;100.00;96322.78;4989244;28;20057;-44
2021/12/20 02:27:33;;;;;;;24.25;11.63;;;;;;;0.22;100.00;96327.66;4989434;28;20046;-43
2021/12/20 02:30:08;;;;;;;20.20;10.77;;;;;;;0.40;100.00;96316.63;4991224;28;20057;-43
2021/12/20 02:38:21;;;;;;;27.20;12.50;;;;;;;0.47;100.00;96327.03;4983505;28;20046;-42
2021/12/20 02:41:02;;;;;;;25.23;11.52;;;;;;;0.60;100.00;96315.13;4987487;28;20056;-44
2021/12/20 02:43:30;;;;;;;27.40;12.35;;;;;;;0.68;99.69;96319.94;4984501;28;20046;-45
2021/12/20 02:46:01;;;;;;;22.70;10.93;;;;;;;0.34;100.00;96314.97;4986291;28;20503;-46
2021/12/20 02:48:28;;;;;;;24.00;11.07;;;;;;;0.28;100.00;96310.69;4989668;28;20038;-45
2021/12/20 02:50:56;;;;;;;25.05;12.55;;;;;;;0.39;100.00;96308.88;4984397;28;20053;-44
2021/12/20 02:53:23;;;;;;;27.10;12.77;;;;;;;0.49;100.00;96313.44;4989610;28;20448;-47
2021/12/20 02:55:50;;;;;;;24.52;11.38;;;;;;;0.49;100.00;96308.94;4988023;28;20045;-44
2021/12/20 02:58:17;;;;;;;25.77;12.73;;;;;;;0.45;100.00;96308.66;4989019;28;20042;-44
2021/12/20 03:00:43;;;;;;;24.83;10.50;;;;;;;0.65;99.04;96307.97;4987239;28;20060;-43
2021/12/20 03:03:11;;;;;;;24.45;11.55;;;;;;;0.26;100.00;96310.16;4982329;28;20046;-43
2021/12/20 03:05:38;;;;;;;21.13;11.02;;;;;;;0.59;99.75;96308.19;4981645;28;20043;-43
2021/12/20 03:08:05;;;;;;;24.40;10.82;;;;;;;0.72;99.07;96315.72;4983271;28;20038;-47
2021/12/20 03:10:33;;;;;;;23.92;12.02;;;;;;;0.49;99.93;96311.63;4986566;28;20088;-45
2021/12/20 03:13:00;;;;;;;22.40;10.68;;;;;;;0.81;98.51;96305.34;4989038;28;20046;-44
2021/12/20 03:15:27;;;;;;;25.05;11.25;;;;;;;0.44;99.73;96301.72;4986661;28;20041;-44
2021/12/20 03:17:55;;;;;;;23.75;11.30;;;;;;;0.60;99.12;96310.59;4988713;28;20403;-44
2021/12/20 03:20:22;;;;;;;22.77;10.45;;;;;;;0.43;100.00;96307.31;4989604;28;20057;-43
2021/12/20 03:22:50;;;;;;;25.90;11.77;;;;;;;0.43;100.00;96310.78;4982679;28;20508;-45
2021/12/20 03:25:18;;;;;;;27.83;12.30;;;;;;;0.38;100.00;96317.94;4986235;28;20041;-44
2021/12/20 03:27:45;;;;;;;26.35;12.23;;;;;;;0.29;100.00;96308.81;4989059;28;20156;-45
2021/12/20 03:30:19;;;;;;;25.27;11.55;;;;;;;0.29;100.00;96308.81;4986394;28;20077;-44
2021/12/20 03:32:45;;;;;;;27.90;12.18;;;;;;;0.44;100.00;96311.56;4986396;28;20051;-47
2021/12/20 03:35:13;;;;;;;24.73;11.05;;;;;;;0.02;100.00;96299.06;4988772;28;20042;-43
2021/12/20 03:37:41;;;;;;;23.23;11.50;;;;;;;0.28;100.00;96313.34;4986874;28;20066;-44
2021/12/20 03:40:09;;;;;;;27.70;12.52;;;;;;;0.50;100.00;96315.06;4984139;28;20046;-47
2021/12/20 03:42:39;;;;;;;25.77;12.23;;;;;;;0.78;99.47;96311.19;4987757;28;20530;-45
2021/12/20 03:45:07;;;;;;;26.05;11.20;;;;;;;0.55;100.00;96321.22;4985344;28;20050;-44
2021/12/20 03:47:34;;;;;;;26.88;12.88;;;;;;;0.38;100.00;96310.75;4988598;28;20043;-46
2021/12/20 03:50:00;;;;;;;26.73;11.90;;;;;;;0.45;100.00;96319.28;4986693;28;20045;-47
2021/12/20 03:52:27;;;;;;;24.15;11.10;;;;;;;0.51;100.00;96312.13;4989946;28;20045;-45
2021/12/20 03:54:54;;;;;;;26.13;11.70;;;;;;;0.55;100.00;96321.22;4987490;28;20034;-43
2021/12/20 03:57:21;;;;;;;27.00;13.02;;;;;;;0.50;100.00;96315.06;4985322;28;20053;-44
2021/12/20 03:59:53;;;;;;;27.73;12.35;;;;;;;0.57;100.00;96308.44;4990138;28;20046;-44
2021/12/20 04:02:21;;;;;;;27.55;13.57;;;;;;;0.55;100.00;96309.75;4989152;28;20042;-45
2021/12/20 04:04:48;;;;;;;28.38;12.90;;;;;;;0.58;100.00;96312.69;4985741;28;20042;-44
2021/12/20 04:07:16;;;;;;;27.40;12.68;;;;;;;0.40;100.00;96305.16;4982307;28;20053;-42
2021/12/20 04:09:43;;;;;;;26.92;12.00;;;;;;;0.28;100.00;96308.03;4981477;28;20053;-47
2021/12/20 04:12:10;;;;;;;25.83;12.00;;;;;;;0.22;100.00;96304.53;4990317;28;20054;-43
2021/12/20 04:14:37;;;;;;;26.92;11.93;;;;;;;0.39;100.00;96308.88;4981930;28;20057;-44
2021/12/20 04:17:03;;;;;;;27.80;12.35;;;;;;;0.43;100.00;96305.44;4988992;28;20046;-45
2021/12/20 04:19:30;;;;;;;23.67;10.85;;;;;;;0.55;100.00;96307.91;4989368;28;20125;-44
2021/12/20 04:21:57;;;;;;;24.38;10.95;;;;;;;0.64;100.00;96309.00;4990078;28;20053;-44
2021/12/20 04:24:24;;;;;;;22.02;11.63;;;;;;;0.79;99.72;96302.16;4988353;28;20045;-46
2021/12/20 04:26:51;;;;;;;26.75;12.05;;;;;;;0.65;99.73;96304.47;4979089;28;20038;-43
2021/12/20 04:29:19;;;;;;;25.52;12.63;;;;;;;0.56;99.87;96312.19;4990465;28;20053;-44
2021/12/20 04:31:46;;;;;;;24.27;11.18;;;;;;;0.25;100.00;96313.06;4986273;28;20137;-45
2021/12/20 04:34:13;;;;;;;24.63;11.55;;;;;;;0.47;100.00;96321.72;4991263;28;20044;-46
2021/12/20 04:36:40;;;;;;;25.73;12.63;;;;;;;0.44;100.00;96322.22;4973260;28;20053;-46
2021/12/20 04:39:12;;;;;;;25.77;11.05;;;;;;;0.41;100.00;96328.06;4985095;28;20043;-43
2021/12/20 04:41:39;;;;;;;24.27;11.20;;;;;;;0.56;100.00;96325.50;4984073;28;20043;-43
2021/12/20 04:44:07;;;;;;;26.92;11.32;;;;;;;0.54;100.00;96334.78;4981943;28;20121;-44
2021/12/20 04:46:34;;;;;;;25.73;10.90;;;;;;;0.30;100.00;96335.19;4986683;28;20595;-45
2021/12/20 04:49:02;;;;;;;23.63;10.93;;;;;;;0.43;100.00;96331.28;4985841;28;20048;-44
2021/12/20 04:51:30;;;;;;;24.77;11.73;;;;;;;0.46;100.00;96336.88;4988462;28;20093;-46
2021/12/20 04:53:57;;;;;;;28.33;12.95;;;;;;;0.57;100.00;96331.63;4989820;28;20046;-43
2021/12/20 04:56:24;;;;;;;27.17;12.75;;;;;;;0.71;99.45;96340.72;4979024;28;20031;-45
2021/12/20 04:58:51;;;;;;;24.45;11.57;;;;;;;0.74;99.36;96342.88;4987295;28;20050;-42
2021/12/20 05:01:17;;;;;;;25.45;10.95;;;;;;;0.68;99.03;96344.72;4990383;28;20057;-45
2021/12/20 05:03:44;;;;;;;23.27;11.05;;;;;;;0.36;100.00;96339.50;4990684;28;20054;-45
2021/12/20 05:06:12;;;;;;;27.35;11.40;;;;;;;0.46;100.00;96330.75;4985545;28;20066;-44
2021/12/20 05:08:47;;;;;;;22.23;11.45;;;;;;;0.52;100.00;96337.72;4988056;28;20069;-45
2021/12/20 05:11:15;;;;;;;25.80;11.27;;;;;;;0.32;100.00;96342.91;4991502;28;20050;-44
2021/12/20 05:13:43;;;;;;;26.60;12.15;;;;;;;0.56;100.00;96336.13;4992716;28;20061;-46
2021/12/20 05:16:10;;;;;;;24.10;11.15;;;;;;;0.74;99.54;96350.06;4987591;28;20377;-44
2021/12/20 05:18:37;;;;;;;21.90;9.88;;;;;;;0.74;98.79;96353.53;4985630;28;20046;-45
2021/12/20 05:21:03;;;;;;;25.55;11.70;;;;;;;0.68;99.20;96355.38;4992584;28;20042;-44
2021/12/20 05:23:31;;;;;;;23.48;11.43;;;;;;;0.84;98.65;96352.78;4983959;28;20052;-45
2021/12/20 05:25:58;;;;;;;26.05;11.23;;;;;;;0.67;99.12;96364.41;4990231;28;20072;-45
2021/12/20 05:28:25;;;;;;;25.55;11.27;;;;;;;0.52;100.00;96369.69;4983668;28;20079;-45
2021/12/20 05:30:53;;;;;;;24.67;11.45;;;;;;;0.89;99.09;96363.47;4987130;28;20065;-45
2021/12/20 05:33:21;;;;;;;26.08;12.00;;;;;;;1.12;97.21;96359.56;4991046;28;20046;-43
2021/12/20 05:35:50;;;;;;;24.27;10.98;;;;;;;0.79;98.43;96353.56;4989059;28;20484;-45
2021/12/20 05:38:17;;;;;;;24.02;11.35;;;;;;;0.60;98.72;96355.84;4988926;28;20042;-46
2021/12/20 05:40:43;;;;;;;23.95;11.20;;;;;;;0.72;99.38;96355.66;4992167;28;20046;-43
2021/12/20 05:43:11;;;;;;;24.48;11.00;;;;;;;0.88;98.12;96353.88;4990009;28;20430;-44
2021/12/20 05:45:38;;;;;;;23.38;10.52;;;;;;;0.89;97.84;96345.63;4983562;28;20535;-44
2021/12/20 05:48:04;;;;;;;22.48;10.57;;;;;;;0.91;97.71;96362.16;4992408;28;20509;-45
2021/12/20 05:50:32;;;;;;;23.60;11.93;;;;;;;0.89;97.54;96361.59;4992780;28;20046;-43
2021/12/20 05:52:58;;;;;;;25.20;11.45;;;;;;;0.62;98.39;96371.59;4984676;28;20073;-44
2021/12/20 05:55:25;;;;;;;24.17;11.10;;;;;;;0.78;97.99;96362.63;4986222;28;20055;-45
2021/12/20 05:57:52;;;;;;;22.42;11.82;;;;;;;0.82;97.99;96360.25;4991711;28;20054;-43
2021/12/20 06:00:21;;;;;;;24.02;11.65;;;;;;;0.80;97.99;96371.13;4989330;28;20416;-45
2021/12/20 06:02:50;;;;;;;24.52;10.30;;;;;;;0.86;97.43;96363.97;4988440;28;20525;-44
2021/12/20 06:05:19;;;;;;;24.90;11.48;;;;;;;0.55;98.84;96360.34;4989728;28;20057;-45
2021/12/20 06:07:46;;;;;;;25.75;11.90;;;;;;;0.68;100.00;96371.38;4987722;28;21901;-49
2021/12/20 06:10:16;;;;;;;21.67;10.85;;;;;;;0.87;97.95;96368.25;4987768;28;20042;-45
2021/12/20 06:12:44;;;;;;;25.10;11.15;;;;;;;0.82;97.99;96369.03;4990559;28;20042;-44
2021/12/20 06:15:11;;;;;;;25.55;10.98;;;;;;;1.02;96.79;96370.19;4986364;28;20052;-45
2021/12/20 06:17:39;;;;;;;22.08;10.55;;;;;;;0.95;97.20;96377.63;4991411;28;20046;-43
2021/12/20 06:20:09;;;;;;;25.00;11.60;;;;;;;0.90;97.42;96381.03;4991835;28;20464;-44
2021/12/20 06:22:36;;;;;;;23.25;11.77;;;;;;;1.04;97.03;96374.19;4988466;28;20053;-46
2021/12/20 06:25:03;;;;;;;25.15;11.50;;;;;;;0.88;97.06;96378.66;4988997;28;20046;-43
2021/12/20 06:27:30;;;;;;;24.13;11.48;;;;;;;0.59;98.78;96378.22;4988957;28;20042;-42
2021/12/20 06:29:57;;;;;;;25.35;11.25;;;;;;;0.95;98.73;96385.63;4990546;28;20046;-42
2021/12/20 06:32:24;;;;;;;25.67;11.73;;;;;;;1.16;97.09;96376.63;4992740;28;20049;-42
2021/12/20 06:34:51;;;;;;;24.95;12.05;;;;;;;1.03;96.98;96380.56;4989880;28;20044;-46
2021/12/20 06:37:18;;;;;;;23.02;11.27;;;;;;;0.95;97.23;96381.09;4981642;28;20515;-43
2021/12/20 06:39:45;;;;;;;27.35;12.30;;;;;;;1.07;96.58;96380.84;4992843;28;20353;-44
2021/12/20 06:42:12;;;;;;;23.63;11.02;;;;;;;1.00;96.93;96386.41;4991282;28;20501;-46
2021/12/20 06:44:38;;;;;;;26.48;12.30;;;;;;;0.90;97.76;96389.03;4988816;28;20043;-43
2021/12/20 06:47:06;;;;;;;25.42;11.85;;;;;;;1.04;96.86;96384.84;4986682;28;20049;-43
2021/12/20 06:49:33;;;;;;;27.15;12.18;;;;;;;1.20;96.47;96388.34;4991919;28;20074;-42
2021/12/20 06:52:02;;;;;;;25.73;12.07;;;;;;;1.06;96.73;96393.38;4987008;28;20042;-46
2021/12/20 06:54:29;;;;;;;25.15;12.32;;;;;;;0.97;97.42;96400.25;4985157;28;20042;-46
2021/12/20 06:56:56;;;;;;;25.27;11.65;;;;;;;1.05;96.96;96396.31;4986982;28;20066;-43
2021/12/20 06:59:23;;;;;;;26.52;12.77;;;;;;;1.05;97.24;96402.44;4990639;28;20208;-43
2021/12/20 07:01:50;;;;;;;29.35;11.73;;;;;;;0.67;98.10;96393.72;4989725;28;20072;-43
2021/12/20 07:04:17;;;;;;;23.98;11.60;;;;;;;0.94;97.41;96392.78;4985731;28;20082;-45
2021/12/20 07:06:45;;;;;;;25.55;12.25;;;;;;;1.28;96.02;96395.06;4987840;28;20065;-45
2021/12/20 07:09:12;;;;;;;22.40;11.32;;;;;;;1.20;95.58;96403.56;4990640;28;20484;-47
2021/12/20 07:11:41;;;;;;;23.33;10.70;;;;;;;1.02;97.18;96394.97;5005796;28;20049;-45
2021/12/20 07:14:08;;;;;;;23.90;11.43;;;;;;;1.02;96.79;96394.97;4991038;28;20048;-46
2021/12/20 07:16:36;;;;;;;24.27;11.68;;;;;;;1.25;95.85;96400.91;4986704;28;20154;-46
2021/12/20 07:19:05;;;;;;;25.33;12.02;;;;;;;0.86;97.05;96401.28;4987075;28;20042;-44
2021/12/20 07:21:32;;;;;;;27.02;11.15;;;;;;;1.11;96.73;96395.28;4986651;28;20050;-46
2021/12/20 07:23:59;;;;;;;24.70;12.23;;;;;;;1.09;95.95;96392.84;4985095;28;20050;-44
2021/12/20 07:26:26;;;;;;;27.75;12.60;;;;;;;0.74;97.94;96398.81;4984012;28;20038;-45
2021/12/20 07:28:53;;;;;;;25.58;12.65;;;;;;;0.86;98.42;96404.75;4986450;28;20042;-44
2021/12/20 07:31:21;;;;;;;22.95;11.90;;;;;;;0.82;97.40;96405.53;4985963;28;20802;-46
2021/12/20 07:33:48;;;;;;;24.23;11.95;;;;;;;0.97;97.06;96402.91;4984983;28;20042;-44
2021/12/20 07:36:18;;;;;;;25.80;11.93;;;;;;;1.10;96.71;96407.78;4984265;28;20136;-47
2021/12/20 07:38:46;;;;;;;22.98;12.07;;;;;;;1.50;95.22;96403.66;4985812;28;20534;-43
2021/12/20 07:41:13;;;;;;;27.15;12.93;;;;;;;1.43;94.61;96407.63;4985330;28;20053;-43
2021/12/20 07:43:40;;;;;;;23.58;12.25;;;;;;;1.04;96.34;96414.16;4983758;28;20073;-46
2021/12/20 07:46:07;;;;;;;25.70;11.93;;;;;;;0.94;97.46;96414.09;4984512;28;20053;-43
2021/12/20 07:48:33;;;;;;;22.13;11.88;;;;;;;0.93;98.47;96417.81;4986209;28;20038;-45
2021/12/20 07:51:01;;;;;;;24.08;11.77;;;;;;;0.90;98.00;96426.34;4982638;28;20090;-43
2021/12/20 07:53:28;;;;;;;25.55;12.30;;;;;;;1.42;95.64;96419.38;4992954;28;20076;-44
2021/12/20 07:55:55;;;;;;;26.60;11.77;;;;;;;1.24;96.73;96425.97;4988250;28;20500;-46
2021/12/20 07:58:23;;;;;;;24.35;12.13;;;;;;;1.30;95.25;96416.91;4990070;28;20453;-46
2021/12/20 08:00:50;;;;;;;24.23;12.38;;;;;;;0.95;97.51;96425.56;4981256;28;20073;-44
2021/12/20 08:03:18;;;;;;;24.88;12.95;;;;;;;1.35;95.64;96427.59;4990738;28;20046;-45
2021/12/20 08:05:45;;;;;;;24.88;11.35;;;;;;;0.80;98.51;96420.94;4982594;28;20042;-45
2021/12/20 08:08:13;;;;;;;24.98;12.23;;;;;;;1.26;97.01;96419.31;4967838;28;20108;-49
2021/12/20 08:10:40;;;;;;;23.15;11.25;;;;;;;1.38;95.49;96411.88;4990050;28;20116;-45
2021/12/20 08:13:09;;;;;;;22.35;11.40;;;;;;;1.42;95.56;96412.16;4991196;28;20054;-45
2021/12/20 08:15:36;;;;;;;24.60;13.13;;;;;;;1.36;95.75;96413.22;4985852;28;20043;-48
2021/12/20 08:18:03;;;;;;;25.98;11.88;;;;;;;0.86;97.89;96414.59;4984895;28;20038;-44
2021/12/20 08:20:30;;;;;;;25.98;11.88;;;;;;;1.10;97.38;96426.44;4988360;28;20057;-42
2021/12/20 08:22:58;;;;;;;31.33;13.43;;;;;;;1.23;95.89;96424.34;4988345;28;20065;-43
2021/12/20 08:25:25;;;;;;;25.65;11.35;;;;;;;1.16;96.20;96425.38;4990967;28;20045;-43
2021/12/20 08:27:52;;;;;;;27.20;13.32;;;;;;;1.09;96.54;96427.50;5005332;28;20042;-46
2021/12/20 08:30:22;;;;;;;26.45;11.77;;;;;;;1.05;96.25;96426.41;4987800;28;20046;-43
2021/12/20 08:32:50;;;;;;;28.00;13.60;;;;;;;1.13;96.35;96431.25;4986745;28;20444;-44
2021/12/20 08:35:17;;;;;;;26.98;13.15;;;;;;;1.45;95.38;96432.19;4988616;28;20117;-46
2021/12/20 08:37:44;;;;;;;23.42;11.73;;;;;;;0.93;97.61;96418.63;4973801;28;20050;-44
2021/12/20 08:40:14;;;;;;;21.67;10.75;;;;;;;0.67;98.06;96428.31;4993102;28;20057;-45
2021/12/20 08:42:42;;;;;;;30.13;12.10;;;;;;;0.51;99.74;96433.81;4985248;28;20073;-43
2021/12/20 08:45:10;;;;;;;29.50;12.57;;;;;;;0.93;98.13;96436.47;4991979;28;20415;-46
2021/12/20 08:47:38;;;;;;;28.25;12.18;;;;;;;0.88;97.70;96426.59;4989468;28;20050;-45
2021/12/20 08:50:10;;;;;;;22.88;10.50;;;;;;;0.69;98.82;96430.75;4992646;28;20063;-46
2021/12/20 08:52:38;;;;;;;25.50;12.40;;;;;;;1.11;97.52;96437.91;4985551;28;20166;-44
2021/12/20 08:55:06;;;;;;;23.92;12.27;;;;;;;1.47;96.03;96436.19;4991935;28;20054;-44
2021/12/20 08:57:33;;;;;;;25.95;12.10;;;;;;;1.46;95.43;96444.44;5007893;28;20129;-44
2021/12/20 09:00:04;;;;;;;24.92;11.75;;;;;;;1.47;95.63;96449.53;4995541;28;20551;-44
2021/12/20 09:02:31;;;;;;;25.58;12.90;;;;;;;1.40;95.06;96438.31;4990996;28;21735;-47
2021/12/20 09:04:59;;;;;;;28.10;13.02;;;;;;;1.38;95.45;96443.09;4993131;28;20042;-44
2021/12/20 09:07:26;;;;;;;28.13;13.45;;;;;;;1.44;94.94;96442.03;4990386;28;20427;-46
2021/12/20 09:09:53;;;;;;;28.63;12.68;;;;;;;1.45;95.09;96443.63;4991344;28;20047;-43
2021/12/20 09:12:21;;;;;;;23.33;12.00;;;;;;;1.37;95.52;96447.63;4993737;28;20360;-44
2021/12/20 09:14:49;;;;;;;27.83;12.27;;;;;;;1.42;95.84;96448.69;4992021;28;20045;-45
2021/12/20 09:17:17;;;;;;;29.80;13.20;;;;;;;1.22;97.95;96449.41;4989863;28;20046;-45
2021/12/20 09:19:44;;;;;;;26.92;13.60;;;;;;;1.34;96.08;96445.47;4987971;28;20054;-43
2021/12/20 09:22:11;;;;;;;27.77;12.05;;;;;;;1.83;94.91;96444.28;4993557;28;20053;-47
2021/12/20 09:24:40;;;;;;;25.45;12.98;;;;;;;1.24;96.00;96448.09;4988748;28;20053;-44
2021/12/20 09:27:08;;;;;;;25.70;12.70;;;;;;;1.39;96.09;96456.13;4992568;28;20054;-43
2021/12/20 09:29:36;;;;;;;29.02;14.70;;;;;;;1.52;95.72;96449.53;4993102;28;20407;-44
2021/12/20 09:32:04;;;;;;;25.45;12.05;;;;;;;1.32;96.21;96452.13;4991243;28;20035;-45
2021/12/20 09:34:31;;;;;;;27.67;13.05;;;;;;;1.50;95.66;96449.00;4989591;28;20133;-45
2021/12/20 09:37:04;;;;;;;30.00;13.70;;;;;;;1.58;95.07;96440.47;4987390;28;20121;-44
2021/12/20 09:39:32;;;;;;;27.27;13.18;;;;;;;1.63;94.77;96445.03;4988248;28;20073;-44
2021/12/20 09:42:00;;;;;;;26.30;12.25;;;;;;;1.22;96.92;96455.53;4997653;28;20096;-43
2021/12/20 09:44:27;;;;;;;27.67;12.63;;;;;;;1.05;98.43;96447.72;4992445;28;20496;-45
2021/12/20 09:46:59;;;;;;;32.42;16.10;;;;;;;1.47;96.06;96456.72;4986745;28;20045;-45
2021/12/20 09:49:28;;;;;;;28.45;13.45;;;;;;;1.67;95.50;96450.66;4990089;28;20050;-46
2021/12/20 09:51:57;;;;;;;24.52;11.82;;;;;;;1.28;96.18;96449.19;4989450;28;20042;-44
2021/12/20 09:54:26;;;;;;;29.85;13.13;;;;;;;1.11;97.82;96445.91;4988779;28;20491;-44
2021/12/20 09:56:54;;;;;;;26.00;12.70;;;;;;;1.01;98.64;96444.00;4983492;28;20050;-48
2021/12/20 09:59:24;;;;;;;27.45;12.55;;;;;;;1.19;98.12;96447.28;4990471;28;20052;-46
2021/12/20 10:01:52;;;;;;;26.70;12.70;;;;;;;1.13;98.41;96436.56;4988477;28;20729;-44
2021/12/20 10:04:22;;;;;;;27.23;13.55;;;;;;;1.46;97.41;96431.09;4987836;28;20057;-47
2021/12/20 10:06:59;;;;;;;27.35;12.55;;;;;;;1.22;96.85;96439.56;4986668;28;20092;-45
2021/12/20 10:09:28;;;;;;;28.45;12.07;;;;;;;1.05;97.97;96437.06;4988546;28;20046;-45
2021/12/20 10:12:22;;;;;;;26.90;12.38;;;;;;;1.13;98.10;96436.56;4988120;28;20046;-46
2021/12/20 10:15:00;;;;;;;27.92;11.70;;;;;;;1.14;97.94;96438.19;4990086;28;20523;-45
2021/12/20 10:17:34;;;;;;;29.13;13.00;;;;;;;1.43;96.18;96444.97;4985187;28;20054;-44
2021/12/20 10:20:17;;;;;;;27.25;12.75;;;;;;;1.17;96.99;96442.22;4988198;28;20050;-45
2021/12/20 10:22:44;;;;;;;24.70;11.98;;;;;;;1.15;97.77;96445.13;4988098;28;20058;-48
2021/12/20 10:25:23;;;;;;;25.13;12.05;;;;;;;1.38;97.49;96448.41;4988393;28;20049;-47
2021/12/20 10:27:51;;;;;;;25.45;11.90;;;;;;;1.62;95.46;96436.22;4985491;28;20496;-46
2021/12/20 10:30:28;;;;;;;24.75;12.25;;;;;;;1.20;97.09;96436.34;4973995;28;20046;-45
2021/12/20 10:32:56;;;;;;;26.80;13.43;;;;;;;1.38;98.30;96435.09;4987573;28;20101;-48
2021/12/20 10:35:27;;;;;;;22.50;12.10;;;;;;;1.34;96.92;96432.16;4990746;28;20046;-46
2021/12/20 10:38:25;;;;;;;25.27;12.20;;;;;;;1.33;97.32;96435.88;4986010;28;20069;-44
2021/12/20 10:41:00;;;;;;;25.35;12.50;;;;;;;1.39;96.80;96434.00;4990723;28;20054;-44
2021/12/20 10:43:34;;;;;;;27.75;12.02;;;;;;;1.32;96.45;96430.78;4991394;28;20046;-44
2021/12/20 10:46:29;;;;;;;25.38;12.40;;;;;;;1.37;97.58;96434.28;4986482;28;20069;-44
2021/12/20 10:49:03;;;;;;;22.08;11.43;;;;;;;1.32;96.88;96423.59;4991776;28;20420;-43
2021/12/20 10:51:34;;;;;;;23.73;11.73;;;;;;;1.30;97.15;96432.91;4992796;28;20455;-44
2021/12/20 10:54:07;;;;;;;26.98;12.23;;;;;;;1.36;97.40;96432.66;4991250;28;20475;-46
2021/12/20 10:56:37;;;;;;;25.20;11.88;;;;;;;1.44;97.73;96436.72;4991211;28;20129;-45
2021/12/20 10:59:11;;;;;;;31.83;12.50;;;;;;;1.52;96.54;96428.19;4988580;28;20062;-45
2021/12/20 11:04:18;;;;;;;27.05;12.68;;;;;;;1.49;96.71;96423.38;4989787;28;20125;-49
2021/12/20 11:09:18;;;;;;;22.15;10.73;;;;;;;1.79;93.31;96421.88;4989394;28;20054;-48
2021/12/20 11:11:51;;;;;;;22.00;11.05;;;;;;;1.35;95.94;96425.75;4992167;28;20169;-46
2021/12/20 11:14:21;;;;;;;22.40;11.93;;;;;;;1.32;95.79;96422.78;4990987;28;20046;-47
2021/12/20 11:16:54;;;;;;;20.48;8.80;;;;;;;1.28;94.95;96427.84;4986880;28;20046;-47
2021/12/20 11:19:33;;;;;;;21.08;10.70;;;;;;;1.32;94.87;96428.94;4990046;28;20056;-46
2021/12/20 11:22:07;;;;;;;21.30;10.77;;;;;;;1.39;94.09;96418.03;4992090;28;20042;-47
2021/12/20 11:24:41;;;;;;;24.63;10.05;;;;;;;1.45;94.32;96422.31;4991469;28;20053;-45
2021/12/20 11:27:19;;;;;;;21.30;10.48;;;;;;;1.46;94.67;96420.44;4988453;28;20051;-47
2021/12/20 11:29:48;;;;;;;20.88;10.93;;;;;;;1.77;93.16;96418.66;4985261;28;20061;-46
2021/12/20 11:32:16;;;;;;;21.48;10.45;;;;;;;1.70;93.53;96423.47;4989224;28;20125;-45
2021/12/20 11:34:43;;;;;;;18.85;9.57;;;;;;;1.53;92.56;96423.69;4987003;28;20050;-44
2021/12/20 11:37:16;;;;;;;18.55;9.90;;;;;;;1.69;92.30;96422.66;4980982;28;20086;-47
2021/12/20 11:39:46;;;;;;;19.10;10.40;;;;;;;1.68;91.73;96417.56;4989786;28;20428;-45
2021/12/20 11:42:14;;;;;;;18.42;9.90;;;;;;;2.29;90.34;96425.66;4983588;28;20372;-49